EA8NE-9 Weather Reports


time (UTC)temp
F
wind
direction
speed
knots
gust
knots
rain 1hr
in
rain 24hr
in
rain mn
in
humidity
%
barometer
mb
20220523213927 64 171 0.0 1.7 0.00 0.00 0.00 26 1019.8
20220523212927 65 165 0.0 1.7 0.00 0.00 0.00 25 1019.8
20220523211927 65 164 1.7 1.7 0.00 0.00 0.00 25 1019.8
20220523204927 65 147 0.0 0.0 0.00 0.00 0.00 25 1019.8
20220523203927 65 112 0.0 1.7 0.00 0.00 0.00 25 1019.8
20220523202927 66 225 1.7 1.7 0.00 0.00 0.00 25 1019.8
20220523201926 66 203 2.6 2.6 0.00 0.00 0.00 24 1019.8
20220523200927 67 185 2.6 4.3 0.00 0.00 0.00 24 1019.8
20220523194927 67 202 2.6 3.5 0.00 0.00 0.00 24 1018.8
20220523193927 67 179 0.0 2.6 0.00 0.00 0.00 23 1018.8
20220523192927 68 165 1.7 2.6 0.00 0.00 0.00 23 1018.8
20220523191927 68 218 4.3 4.3 0.00 0.00 0.00 22 1018.8
20220523185927 69 198 3.5 4.3 0.00 0.00 0.00 22 1018.8
20220523184927 69 155 3.5 3.5 0.00 0.00 0.00 20 1018.8
20220523183927 70 153 3.5 4.3 0.00 0.00 0.00 17 1018.8
20220523182927 71 149 1.7 4.3 0.00 0.00 0.00 17 1018.8
20220523181927 71 121 0.0 4.3 0.00 0.00 0.00 14 1018.8
20220523175927 73 168 2.6 4.3 0.00 0.00 0.00 11 1018.8
20220523174927 76 163 6.1 6.1 0.00 0.00 0.00 10 1018.8
20220523173927 77 222 2.6 4.3 0.00 0.00 0.00 10 1018.8
20220523172927 76 127 1.7 4.3 0.00 0.00 0.00 10 1018.8
20220523170927 77 185 6.1 6.1 0.00 0.00 0.00 10 1018.8
20220523165927 77 171 2.6 9.6 0.00 0.00 0.00 10 1018.8
20220523164927 76 214 7.8 7.8 0.00 0.00 0.00 10 1018.8
20220523163927 75 191 3.5 4.3 0.00 0.00 0.00 10 1018.8
20220523162927 75 180 4.3 7.0 0.00 0.00 0.00 10 1018.8
20220523161928 76 195 9.6 9.6 0.00 0.00 0.00 10 1018.8
20220523155927 75 213 4.3 6.1 0.00 0.00 0.00 11 1018.8
20220523154927 75 144 4.3 4.3 0.00 0.00 0.00 11 1018.8
20220523153927 75 187 5.2 5.2 0.00 0.00 0.00 11 1018.8
20220523152927 75 203 1.7 2.6 0.00 0.00 0.00 11 1018.8
20220523151927 75 184 7.8 7.8 0.00 0.00 0.00 11 1018.8
20220523150927 75 166 2.6 2.6 0.00 0.00 0.00 13 1019.8
20220523144927 74 74 2.6 4.3 0.00 0.00 0.00 13 1019.8
20220523143927 74 162 4.3 6.1 0.00 0.00 0.00 11 1019.8
20220523142927 75 88 2.6 4.3 0.00 0.00 0.00 11 1019.8
20220523140927 75 172 2.6 2.6 0.00 0.00 0.00 11 1019.8
20220523134927 74 52 5.2 7.0 0.00 0.00 0.00 13 1019.8
20220523133927 75 115 1.7 4.3 0.00 0.00 0.00 13 1019.8
20220523130927 74 88 4.3 6.1 0.00 0.00 0.00 11 1019.8
20220523125927 74 149 2.6 2.6 0.00 0.00 0.00 13 1019.8
20220523124927 74 113 2.6 6.1 0.00 0.00 0.00 13 1019.8
20220523123927 74 87 2.6 6.1 0.00 0.00 0.00 11 1020.8
20220523122927 74 109 6.1 6.1 0.00 0.00 0.00 11 1020.8
20220523121927 75 55 4.3 6.1 0.00 0.00 0.00 11 1020.8
20220523115927 75 340 2.6 7.0 0.00 0.00 0.00 10 1020.8
20220523112928 73 219 0.0 3.5 0.00 0.00 0.00 11 1020.8
20220523111927 72 123 4.3 5.2 0.00 0.00 0.00 14 1020.8
20220523105927 73 128 2.6 2.6 0.00 0.00 0.00 11 1019.8
20220523104927 73 159 4.3 6.1 0.00 0.00 0.00 11 1019.8
20220523103927 74 167 2.6 4.3 0.00 0.00 0.00 11 1019.8
20220523102927 74 189 2.6 4.3 0.00 0.00 0.00 11 1019.8
20220523101927 73 228 4.3 4.3 0.00 0.00 0.00 11 1019.8
20220523095927 72 212 1.7 4.3 0.00 0.00 0.00 11 1019.8
20220523094927 72 177 4.3 6.1 0.00 0.00 0.00 11 1019.8
20220523091927 72 141 2.6 2.6 0.00 0.00 0.00 11 1019.8
20220523085927 71 158 1.7 6.1 0.00 0.00 0.00 12 1018.8
20220523084927 71 159 2.6 5.2 0.00 0.00 0.00 12 1018.8
20220523083928 71 218 1.7 4.3 0.00 0.00 0.00 12 1018.8
20220523082928 70 224 6.1 7.0 0.00 0.00 0.00 12 1018.8
20220523081927 70 206 6.1 6.1 0.00 0.00 0.00 14 1018.8
20220523080927 69 202 3.5 7.0 0.00 0.00 0.00 17 1018.8
20220523075927 68 253 4.3 9.6 0.00 0.00 0.00 17 1018.8